Terminal Aerodrome Forecast
Issued by NWS

Home | Current Version | Previous Version | Text Only | Print | Product List | Glossary On
Versions: 1 2 3 4 5 6 7 8 9 10 11 12 13
476
FTUS46 KSTO 261124
TAFSCK
TAF
KSCK 261124Z 2612/2712 31010KT P6SM SKC
     FM262100 30012G19KT P6SM SKC=

USA.gov is the U.S. government's official web portal to all federal, state and local government web resources and services.